Terminal Aerodrome Forecast
Issued by NWS Des Moines, IA

Home | Current Version | Previous Version | Text Only | Print | Product List | Glossary On
Versions: 1 2 3 4 5 6 7 8 9 10 11 12 13 14 15 16 17 18 19 20 21 22 23 24 25
000
FTUS43 KDMX 041839 RRA
TAFDSM
TAF
KDSM 041839Z 0419/0518 19010KT P6SM FEW200 SCT250
     FM050100 16006KT P6SM BKN120
     FM051300 19010KT P6SM SCT150=

USA.gov is the U.S. government's official web portal to all federal, state and local government web resources and services.